createdAt,value
2022-10-18T00:01:59.871Z,86.60
2022-10-18T00:04:29.335Z,86.60
2022-10-18T00:06:57.434Z,86.60
2022-10-18T00:09:27.492Z,86.60
2022-10-18T00:11:55.632Z,86.60
2022-10-18T00:14:23.769Z,86.60
2022-10-18T00:16:51.838Z,86.60
2022-10-18T00:19:19.911Z,86.60
2022-10-18T00:21:50.875Z,86.60
2022-10-18T00:24:19.033Z,86.70
2022-10-18T00:26:47.110Z,86.70
2022-10-18T00:29:16.124Z,86.80
2022-10-18T00:31:44.599Z,86.60
2022-10-18T00:34:14.684Z,86.60
2022-10-18T00:36:42.829Z,86.60
2022-10-18T00:39:23.162Z,86.70
2022-10-18T00:41:51.557Z,86.70
2022-10-18T00:44:59.920Z,86.70
2022-10-18T00:47:27.986Z,86.70
2022-10-18T00:49:57.977Z,86.70
2022-10-18T00:52:28.833Z,86.70
2022-10-18T00:54:58.545Z,86.70
2022-10-18T00:57:42.904Z,86.70
2022-10-18T01:00:12.008Z,86.70
2022-10-18T01:02:40.981Z,86.70
2022-10-18T01:05:11.212Z,86.70
2022-10-18T01:07:56.705Z,86.70
2022-10-18T01:10:28.677Z,86.70
2022-10-18T01:13:04.525Z,86.70
2022-10-18T01:15:33.415Z,86.70
2022-10-18T01:18:05.350Z,86.60
2022-10-18T01:21:07.291Z,86.70
2022-10-18T01:24:00.674Z,86.80
2022-10-18T01:26:38.217Z,86.80
2022-10-18T01:29:15.065Z,86.80
2022-10-18T01:31:45.634Z,86.80
2022-10-18T01:34:14.056Z,86.80
2022-10-18T01:36:42.623Z,86.80
2022-10-18T01:39:12.422Z,86.80
2022-10-18T01:41:41.014Z,86.80
2022-10-18T01:44:10.769Z,86.80
2022-10-18T01:46:39.393Z,86.80
2022-10-18T01:49:08.857Z,86.80
2022-10-18T01:51:36.965Z,86.70
2022-10-18T01:54:05.253Z,86.70
2022-10-18T01:56:39.437Z,86.70
2022-10-18T01:59:24.235Z,86.70
2022-10-18T02:01:56.482Z,86.80
2022-10-18T02:04:30.671Z,86.70
2022-10-18T02:07:02.104Z,86.80
2022-10-18T02:09:33.531Z,86.60
2022-10-18T02:12:01.668Z,86.70
2022-10-18T02:14:29.729Z,86.70
2022-10-18T02:16:58.126Z,86.70
2022-10-18T02:19:32.389Z,86.90
2022-10-18T02:22:14.391Z,86.70
2022-10-18T02:24:44.277Z,86.70
2022-10-18T02:27:15.160Z,86.70
2022-10-18T02:29:43.850Z,86.70
2022-10-18T02:32:13.594Z,86.70
2022-10-18T02:34:44.046Z,86.70
2022-10-18T02:37:12.408Z,86.60
2022-10-18T02:39:43.912Z,86.70
2022-10-18T02:42:12.142Z,86.60
2022-10-18T02:44:40.333Z,86.70
2022-10-18T02:47:09.457Z,86.60
2022-10-18T02:49:37.541Z,86.70
2022-10-18T02:52:07.110Z,86.60
2022-10-18T02:57:03.580Z,86.60
2022-10-18T02:59:31.670Z,86.50
2022-10-18T03:09:37.995Z,86.70
2022-10-18T03:12:06.520Z,86.70
2022-10-18T03:14:34.580Z,86.60
2022-10-18T03:17:02.677Z,86.60
2022-10-18T03:19:30.782Z,86.70
2022-10-18T03:21:58.834Z,86.70
2022-10-18T03:24:29.998Z,86.70
2022-10-18T03:27:07.630Z,86.70
2022-10-18T03:29:36.006Z,86.70
2022-10-18T03:32:04.029Z,86.60
2022-10-18T03:34:32.112Z,86.60
2022-10-18T03:37:03.361Z,86.60
2022-10-18T03:39:33.439Z,86.60
2022-10-18T03:42:02.907Z,86.60
2022-10-18T03:44:31.012Z,86.70
2022-10-18T03:49:27.547Z,86.70
2022-10-18T03:51:55.605Z,86.70
2022-10-18T03:54:23.713Z,86.70
2022-10-18T03:56:51.847Z,86.80
2022-10-18T03:59:24.297Z,86.70
2022-10-18T04:04:21.094Z,86.60
2022-10-18T04:06:49.264Z,86.70
2022-10-18T04:09:17.317Z,86.70
2022-10-18T04:11:45.336Z,86.70
2022-10-18T04:14:13.399Z,86.80
2022-10-18T04:16:42.824Z,86.70
2022-10-18T04:19:10.929Z,86.80
2022-10-18T04:21:39.053Z,86.70
2022-10-18T04:24:07.578Z,86.70
2022-10-18T04:29:04.285Z,86.80
2022-10-18T04:31:32.389Z,86.80
2022-10-18T04:34:07.780Z,86.90
2022-10-18T04:36:35.825Z,86.80
2022-10-18T04:39:04.143Z,86.70
2022-10-18T04:41:32.170Z,86.80
2022-10-18T04:44:00.243Z,86.70
2022-10-18T04:46:28.310Z,86.80
2022-10-18T04:48:56.393Z,86.80
2022-10-18T04:51:25.862Z,86.80
2022-10-18T04:53:54.246Z,86.80
2022-10-18T04:56:22.432Z,86.80
2022-10-18T04:58:50.546Z,86.80
2022-10-18T05:01:19.015Z,86.80
2022-10-18T05:03:47.231Z,86.90
2022-10-18T05:06:15.279Z,86.80
2022-10-18T05:08:44.754Z,86.90
2022-10-18T05:11:12.853Z,86.90
2022-10-18T05:13:40.936Z,86.90
2022-10-18T05:16:09.060Z,86.90
2022-10-18T05:18:37.164Z,86.90
2022-10-18T05:21:05.461Z,86.90
2022-10-18T05:23:33.537Z,86.90
2022-10-18T05:26:04.343Z,86.80
2022-10-18T05:28:40.827Z,86.70
2022-10-18T05:31:10.162Z,86.80
2022-10-18T05:33:41.305Z,86.80
2022-10-18T05:36:09.949Z,86.80
2022-10-18T05:38:40.154Z,86.80
2022-10-18T05:41:09.673Z,86.90
2022-10-18T05:43:37.748Z,86.90
2022-10-18T05:46:11.861Z,86.90
2022-10-18T05:48:43.206Z,86.90
2022-10-18T05:51:11.192Z,87.00
2022-10-18T05:53:39.223Z,86.90
2022-10-18T05:56:09.168Z,86.90
2022-10-18T05:58:46.072Z,86.90
2022-10-18T06:01:14.127Z,86.90
2022-10-18T06:03:42.310Z,86.90
2022-10-18T06:06:11.139Z,86.90
2022-10-18T06:08:39.393Z,87.00
2022-10-18T06:11:09.862Z,86.90
2022-10-18T06:13:41.366Z,86.90
2022-10-18T06:16:25.440Z,86.90
2022-10-18T06:18:56.622Z,86.90
2022-10-18T06:21:25.023Z,87.00
2022-10-18T06:23:53.378Z,86.90
2022-10-18T06:26:23.135Z,86.90
2022-10-18T06:28:51.266Z,86.90
2022-10-18T06:31:20.622Z,86.80
2022-10-18T06:33:49.285Z,86.90
2022-10-18T06:36:18.095Z,86.90
2022-10-18T06:38:46.201Z,87.00
2022-10-18T06:41:14.253Z,86.90
2022-10-18T06:43:43.921Z,86.90
2022-10-18T06:46:11.972Z,86.90
2022-10-18T06:48:40.283Z,86.90
2022-10-18T06:51:08.774Z,87.00
2022-10-18T06:53:59.022Z,87.00
2022-10-18T06:56:31.987Z,86.90
2022-10-18T06:59:08.854Z,86.90
2022-10-18T07:01:39.911Z,87.00
2022-10-18T07:04:08.568Z,86.90
2022-10-18T07:06:36.664Z,86.90
2022-10-18T07:09:04.867Z,87.00
2022-10-18T07:11:33.012Z,86.90
2022-10-18T07:14:04.759Z,86.90
2022-10-18T07:16:36.182Z,86.90
2022-10-18T07:19:10.181Z,86.90
2022-10-18T07:21:38.221Z,86.90
2022-10-18T07:24:06.698Z,87.00
2022-10-18T07:26:35.321Z,86.90
2022-10-18T07:29:06.968Z,86.80
2022-10-18T07:31:35.303Z,86.80
2022-10-18T07:34:05.017Z,86.80
2022-10-18T07:36:36.093Z,86.90
2022-10-18T07:39:06.297Z,86.90
2022-10-18T07:41:34.565Z,86.90
2022-10-18T07:44:04.529Z,86.90
2022-10-18T07:46:32.578Z,86.80
2022-10-18T07:49:00.662Z,86.80
2022-10-18T07:51:30.933Z,86.80
2022-10-18T07:53:59.010Z,86.90
2022-10-18T07:56:27.113Z,86.90
2022-10-18T07:58:56.484Z,86.90
2022-10-18T08:01:25.976Z,86.90
2022-10-18T08:03:54.196Z,86.80
2022-10-18T08:06:22.817Z,86.90
2022-10-18T08:08:50.970Z,86.90
2022-10-18T08:11:19.936Z,86.80
2022-10-18T08:13:50.422Z,86.80
2022-10-18T08:16:20.049Z,86.90
2022-10-18T08:18:49.592Z,86.90
2022-10-18T08:21:17.927Z,86.80
2022-10-18T08:23:45.995Z,86.90
2022-10-18T08:26:14.679Z,86.90
2022-10-18T08:28:49.058Z,86.90
2022-10-18T08:31:28.899Z,86.90
2022-10-18T08:33:58.532Z,86.90
2022-10-18T08:36:26.655Z,86.80
2022-10-18T08:38:54.785Z,86.90
2022-10-18T08:41:30.990Z,87.00
2022-10-18T08:44:07.104Z,87.00
2022-10-18T08:46:36.258Z,87.00
2022-10-18T08:49:12.731Z,87.00
2022-10-18T08:51:43.270Z,87.00
2022-10-18T08:54:13.210Z,86.90
2022-10-18T08:56:41.726Z,86.90
2022-10-18T08:59:10.932Z,86.90
2022-10-18T09:01:43.346Z,86.90
2022-10-18T09:04:21.232Z,86.90
2022-10-18T09:07:08.215Z,87.00
2022-10-18T09:09:39.257Z,86.90
2022-10-18T09:12:15.210Z,87.00
2022-10-18T09:15:13.336Z,87.00
2022-10-18T09:17:47.182Z,86.90
2022-10-18T09:20:23.058Z,87.00
2022-10-18T09:22:55.861Z,86.90
2022-10-18T09:25:27.391Z,86.90
2022-10-18T09:27:57.444Z,87.00
2022-10-18T09:30:34.382Z,87.00
2022-10-18T09:33:07.405Z,86.90
2022-10-18T09:35:40.241Z,86.90
2022-10-18T09:38:11.759Z,86.90
2022-10-18T09:40:44.576Z,86.90
2022-10-18T09:43:15.202Z,87.00
2022-10-18T09:45:44.194Z,87.00
2022-10-18T09:48:14.292Z,87.00
2022-10-18T09:50:45.276Z,87.00
2022-10-18T09:53:17.170Z,86.90
2022-10-18T09:55:57.273Z,87.00
2022-10-18T09:58:25.321Z,86.90
2022-10-18T10:00:53.372Z,86.90
2022-10-18T10:03:21.491Z,86.90
2022-10-18T10:06:15.999Z,86.90
2022-10-18T10:08:44.376Z,86.90
2022-10-18T10:11:31.124Z,86.90
2022-10-18T10:14:00.020Z,86.90
2022-10-18T10:16:28.244Z,86.90
2022-10-18T10:18:56.469Z,86.90
2022-10-18T10:21:26.038Z,86.90
2022-10-18T10:23:54.978Z,86.90
2022-10-18T10:26:24.161Z,86.90
2022-10-18T10:28:52.371Z,86.90
2022-10-18T10:31:26.985Z,86.90
2022-10-18T10:34:00.173Z,86.90
2022-10-18T10:36:29.674Z,86.90
2022-10-18T10:39:05.257Z,86.90
2022-10-18T10:44:06.424Z,86.90
2022-10-18T10:46:37.661Z,86.90
2022-10-18T10:52:08.438Z,86.90
2022-10-18T10:54:40.476Z,86.90
2022-10-18T10:57:17.565Z,86.90
2022-10-18T10:59:47.006Z,86.90
2022-10-18T11:02:21.816Z,86.90
2022-10-18T11:04:51.016Z,86.90
2022-10-18T11:07:24.382Z,86.90
2022-10-18T11:09:58.302Z,86.80
2022-10-18T11:12:33.289Z,86.90
2022-10-18T11:15:13.711Z,86.80
2022-10-18T11:17:44.085Z,86.80
2022-10-18T11:20:24.090Z,86.80
2022-10-18T11:23:01.209Z,86.80
2022-10-18T11:25:59.730Z,86.70
2022-10-18T11:28:34.684Z,86.70
2022-10-18T11:31:09.438Z,86.80
2022-10-18T11:34:07.571Z,86.80
2022-10-18T11:36:36.774Z,86.80
2022-10-18T11:39:17.987Z,86.80
2022-10-18T11:41:47.885Z,86.80
2022-10-18T11:44:19.982Z,86.80
2022-10-18T11:46:57.776Z,86.70
2022-10-18T11:49:33.596Z,86.70
2022-10-18T11:52:09.478Z,86.70
2022-10-18T11:54:49.538Z,86.80
2022-10-18T11:57:26.282Z,86.90
2022-10-18T11:59:57.798Z,86.90
2022-10-18T12:02:41.854Z,86.80
2022-10-18T12:07:56.889Z,86.90
2022-10-18T12:10:38.102Z,86.90
2022-10-18T12:16:05.731Z,86.90
2022-10-18T12:18:33.783Z,86.90
2022-10-18T12:21:01.862Z,86.90
2022-10-18T12:23:36.170Z,86.80
2022-10-18T12:26:06.697Z,86.80
2022-10-18T12:28:38.796Z,86.80
2022-10-18T12:31:14.973Z,86.70
2022-10-18T12:33:45.380Z,86.70
2022-10-18T12:36:20.039Z,86.70
2022-10-18T12:38:49.114Z,86.70
2022-10-18T12:41:20.714Z,86.70
2022-10-18T12:43:52.684Z,86.70
2022-10-18T12:46:20.810Z,86.80
2022-10-18T12:48:54.300Z,86.80
2022-10-18T12:51:22.976Z,86.70
2022-10-18T12:53:53.457Z,86.80
2022-10-18T12:56:41.786Z,86.70
2022-10-18T13:02:10.643Z,86.70
2022-10-18T13:07:19.550Z,86.70
2022-10-18T13:10:35.585Z,86.70
2022-10-18T13:13:38.214Z,86.70
2022-10-18T13:16:08.297Z,86.70
2022-10-18T13:18:42.901Z,86.70
2022-10-18T13:26:20.576Z,86.60
2022-10-18T13:28:53.592Z,86.60
2022-10-18T13:31:24.864Z,86.70
2022-10-18T13:33:52.966Z,86.60
2022-10-18T13:36:25.797Z,86.60
2022-10-18T13:39:04.403Z,86.50
2022-10-18T13:41:35.387Z,86.40
2022-10-18T13:44:28.413Z,86.40
2022-10-18T13:47:36.610Z,86.40
2022-10-18T13:50:35.711Z,86.40
2022-10-18T13:53:40.278Z,86.40
2022-10-18T13:56:17.281Z,86.40
2022-10-18T13:59:05.879Z,86.40
2022-10-18T14:01:42.489Z,86.50
2022-10-18T14:04:25.926Z,86.70
2022-10-18T14:09:43.624Z,86.70
2022-10-18T14:12:15.942Z,86.90
2022-10-18T14:14:45.024Z,86.90
2022-10-18T14:17:20.323Z,86.90
2022-10-18T14:19:50.399Z,86.80
2022-10-18T14:22:22.789Z,86.80
2022-10-18T14:24:52.597Z,86.80
2022-10-18T14:27:21.603Z,86.80
2022-10-18T14:30:10.230Z,86.80
2022-10-18T14:32:43.129Z,86.90
2022-10-18T14:35:32.185Z,86.90
2022-10-18T14:38:02.095Z,86.90
2022-10-18T14:40:32.437Z,86.90
2022-10-18T14:43:03.790Z,86.90
2022-10-18T14:45:31.852Z,86.90
2022-10-18T14:48:25.384Z,86.90
2022-10-18T14:50:59.204Z,87.00
2022-10-18T14:53:30.811Z,86.90
2022-10-18T14:56:00.805Z,86.90
2022-10-18T14:58:28.880Z,86.90
2022-10-18T15:00:57.019Z,86.90
2022-10-18T15:03:28.329Z,86.90
2022-10-18T15:06:03.825Z,86.90
2022-10-18T15:08:33.947Z,86.90
2022-10-18T15:11:04.804Z,87.00
2022-10-18T15:13:33.223Z,87.00
2022-10-18T15:16:01.683Z,87.00
2022-10-18T15:21:25.056Z,86.80
2022-10-18T15:26:24.287Z,86.60
2022-10-18T15:29:01.547Z,86.60
2022-10-18T15:31:37.007Z,86.60
2022-10-18T15:34:11.703Z,86.60
2022-10-18T15:36:39.755Z,86.50
2022-10-18T15:39:09.079Z,86.50
2022-10-18T15:41:38.173Z,86.50
2022-10-18T15:44:13.335Z,86.60
2022-10-18T15:50:01.422Z,86.60
2022-10-18T15:57:55.002Z,86.60
2022-10-18T16:02:51.584Z,86.50
2022-10-18T16:05:21.437Z,86.50
2022-10-18T16:10:21.195Z,86.50
2022-10-18T16:12:49.346Z,86.40
2022-10-18T16:15:17.603Z,86.40
2022-10-18T16:17:45.686Z,86.40
2022-10-18T16:20:15.432Z,86.40
2022-10-18T16:22:44.926Z,86.40
2022-10-18T16:25:13.022Z,86.40
2022-10-18T16:27:41.125Z,86.40
2022-10-18T16:30:12.631Z,86.40
2022-10-18T16:37:49.410Z,86.40
2022-10-18T16:40:24.205Z,86.50
2022-10-18T16:45:20.681Z,86.50
2022-10-18T16:47:48.813Z,86.60
2022-10-18T16:52:45.669Z,86.50
2022-10-18T17:02:53.697Z,86.40
2022-10-18T17:07:51.276Z,86.30
2022-10-18T17:10:20.413Z,86.20
2022-10-18T17:12:48.456Z,86.00
2022-10-18T17:15:18.003Z,86.10
2022-10-18T17:20:19.893Z,86.00
2022-10-18T17:30:14.643Z,86.20
2022-10-18T17:32:44.724Z,86.20
2022-10-18T17:35:15.589Z,86.10
2022-10-18T17:40:40.709Z,86.20
2022-10-18T17:43:08.838Z,86.30
2022-10-18T17:45:36.917Z,86.20
2022-10-18T17:48:06.580Z,86.20
2022-10-18T18:00:28.648Z,86.00
2022-10-18T18:05:30.747Z,85.80
2022-10-18T18:13:01.914Z,85.80
2022-10-18T18:17:58.512Z,85.80
2022-10-18T18:22:56.773Z,85.60
2022-10-18T18:28:06.619Z,85.70
2022-10-18T18:30:35.912Z,85.60
2022-10-18T18:33:03.995Z,85.80
2022-10-18T18:35:33.446Z,86.00
2022-10-18T18:40:30.052Z,86.10
2022-10-18T18:43:12.555Z,86.00
2022-10-18T18:45:52.812Z,86.00
2022-10-18T18:48:21.174Z,86.00
2022-10-18T18:50:51.901Z,86.00
2022-10-18T18:53:20.193Z,86.00
2022-10-18T18:55:50.653Z,85.80
2022-10-18T18:58:18.684Z,85.80
2022-10-18T19:00:46.955Z,85.80
2022-10-18T19:03:15.500Z,85.80
2022-10-18T19:05:43.610Z,85.80
2022-10-18T19:08:13.295Z,85.80
2022-10-18T19:10:41.770Z,85.80
2022-10-18T19:13:09.890Z,85.80
2022-10-18T19:15:37.956Z,85.80
2022-10-18T19:18:06.104Z,85.60
2022-10-18T19:20:43.020Z,85.50
2022-10-18T19:23:12.662Z,85.50
2022-10-18T19:25:40.981Z,85.40
2022-10-18T19:28:09.441Z,85.50
2022-10-18T19:30:37.509Z,85.60
2022-10-18T19:33:05.573Z,85.50
2022-10-18T19:35:33.682Z,85.40
2022-10-18T19:40:37.462Z,85.30
2022-10-18T19:43:05.710Z,85.30
2022-10-18T19:45:33.742Z,85.20
2022-10-18T19:48:01.761Z,85.20
2022-10-18T19:50:29.857Z,85.20
2022-10-18T19:52:57.925Z,85.30
2022-10-18T19:55:29.262Z,85.10
2022-10-18T19:57:58.686Z,85.20
2022-10-18T20:00:26.777Z,85.20
2022-10-18T20:02:54.833Z,84.90
2022-10-18T20:05:23.013Z,84.90
2022-10-18T20:07:51.253Z,85.00
2022-10-18T20:10:19.354Z,84.90
2022-10-18T20:12:47.403Z,84.90
2022-10-18T20:15:25.920Z,85.10
2022-10-18T20:17:53.961Z,84.90
2022-10-18T20:25:18.910Z,84.60
2022-10-18T20:27:46.995Z,84.60
2022-10-18T20:30:15.074Z,84.70
2022-10-18T20:32:44.492Z,84.60
2022-10-18T20:35:12.547Z,84.80
2022-10-18T20:37:40.617Z,84.50
2022-10-18T20:40:10.008Z,84.40
2022-10-18T20:42:38.063Z,84.40
2022-10-18T20:45:07.761Z,84.50
2022-10-18T20:47:36.118Z,84.40
2022-10-18T20:50:06.580Z,84.20
2022-10-18T20:52:34.703Z,84.30
2022-10-18T20:57:34.233Z,84.50
2022-10-18T21:00:05.267Z,84.20
2022-10-18T21:02:33.312Z,84.20
2022-10-18T21:05:01.372Z,84.30
2022-10-18T21:07:36.891Z,84.10
2022-10-18T21:10:07.986Z,84.30
2022-10-18T21:12:36.369Z,83.90
2022-10-18T21:15:05.025Z,84.00
2022-10-18T21:17:33.118Z,83.90
2022-10-18T21:20:01.699Z,83.80
2022-10-18T21:22:30.048Z,83.90
2022-10-18T21:24:59.649Z,84.00
2022-10-18T21:27:30.055Z,83.80
2022-10-18T21:29:58.120Z,83.80
2022-10-18T21:32:26.170Z,83.70
2022-10-18T21:34:54.238Z,83.60
2022-10-18T21:37:28.235Z,83.60
2022-10-18T21:39:56.333Z,83.60
2022-10-18T21:42:25.892Z,83.60
2022-10-18T21:47:25.526Z,83.50
2022-10-18T21:49:53.668Z,83.40
2022-10-18T21:52:21.697Z,83.40
2022-10-18T21:54:49.778Z,83.30
2022-10-18T21:57:17.872Z,83.30
2022-10-18T21:59:47.338Z,83.30
2022-10-18T22:02:15.412Z,83.10
2022-10-18T22:04:49.050Z,83.10
2022-10-18T22:07:19.273Z,83.20
2022-10-18T22:09:47.444Z,83.10
2022-10-18T22:12:15.507Z,83.00
2022-10-18T22:14:43.544Z,83.10
2022-10-18T22:17:12.979Z,83.00
2022-10-18T22:19:41.132Z,83.00
2022-10-18T22:22:09.274Z,83.10
2022-10-18T22:24:37.429Z,82.90
2022-10-18T22:27:05.646Z,82.90
2022-10-18T22:29:33.714Z,83.00
2022-10-18T22:32:01.847Z,82.90
2022-10-18T22:34:31.293Z,82.70
2022-10-18T22:36:59.296Z,82.80
2022-10-18T22:39:30.405Z,82.50
2022-10-18T22:41:58.473Z,82.40
2022-10-18T22:44:26.654Z,82.40
2022-10-18T22:46:54.773Z,82.40
2022-10-18T22:49:22.819Z,82.50
2022-10-18T22:51:52.354Z,82.30
2022-10-18T22:54:20.494Z,82.30
2022-10-18T22:56:48.682Z,82.10
2022-10-18T22:59:16.735Z,82.10
2022-10-18T23:01:44.800Z,82.00
2022-10-18T23:04:12.848Z,82.10
2022-10-18T23:06:40.994Z,82.10
2022-10-18T23:09:11.324Z,82.00
2022-10-18T23:11:39.436Z,81.80
2022-10-18T23:14:07.648Z,81.90
2022-10-18T23:16:35.810Z,81.80
2022-10-18T23:19:04.039Z,81.90
2022-10-18T23:21:32.110Z,81.80
2022-10-18T23:24:00.289Z,81.70
2022-10-18T23:26:29.794Z,81.70
2022-10-18T23:28:57.944Z,81.60
2022-10-18T23:31:27.491Z,81.50
2022-10-18T23:33:56.341Z,81.60
2022-10-18T23:36:24.542Z,81.50
2022-10-18T23:38:52.768Z,81.30
2022-10-18T23:41:20.786Z,81.40
2022-10-18T23:43:50.242Z,81.30
2022-10-18T23:46:18.515Z,81.30
2022-10-18T23:48:49.641Z,81.30
2022-10-18T23:51:17.953Z,81.30
2022-10-18T23:53:46.336Z,81.20
2022-10-18T23:56:15.412Z,81.20
2022-10-18T23:58:43.757Z,81.00
